sensor_id;sensor_type;location;lat;lon;timestamp;P1;durP1;ratioP1;P2;durP2;ratioP2
40609;SDS011;26316;55.976;37.140;2023-04-15T00:00:53;1.83;;;1.13;;
40609;SDS011;26316;55.976;37.140;2023-04-15T00:03:19;1.73;;;0.90;;
40609;SDS011;26316;55.976;37.140;2023-04-15T00:05:44;2.65;;;0.90;;
40609;SDS011;26316;55.976;37.140;2023-04-15T00:08:10;3.17;;;0.80;;
40609;SDS011;26316;55.976;37.140;2023-04-15T00:10:37;2.38;;;0.90;;
40609;SDS011;26316;55.976;37.140;2023-04-15T00:13:02;1.00;;;0.90;;
40609;SDS011;26316;55.976;37.140;2023-04-15T00:15:28;1.70;;;1.38;;
40609;SDS011;26316;55.976;37.140;2023-04-15T00:17:54;2.63;;;1.20;;
40609;SDS011;26316;55.976;37.140;2023-04-15T00:20:20;1.08;;;1.00;;
40609;SDS011;26316;55.976;37.140;2023-04-15T00:22:45;2.55;;;1.15;;
40609;SDS011;26316;55.976;37.140;2023-04-15T00:25:11;2.35;;;0.90;;
40609;SDS011;26316;55.976;37.140;2023-04-15T00:27:37;1.67;;;1.10;;
40609;SDS011;26316;55.976;37.140;2023-04-15T00:30:03;0.77;;;0.77;;
40609;SDS011;26316;55.976;37.140;2023-04-15T00:32:29;1.20;;;1.00;;
40609;SDS011;26316;55.976;37.140;2023-04-15T00:34:55;1.05;;;0.80;;
40609;SDS011;26316;55.976;37.140;2023-04-15T00:37:22;1.05;;;0.95;;
40609;SDS011;26316;55.976;37.140;2023-04-15T00:39:49;1.23;;;0.93;;
40609;SDS011;26316;55.976;37.140;2023-04-15T00:42:14;2.22;;;1.20;;
40609;SDS011;26316;55.976;37.140;2023-04-15T00:44:40;0.80;;;0.80;;
40609;SDS011;26316;55.976;37.140;2023-04-15T00:47:06;2.78;;;1.20;;
40609;SDS011;26316;55.976;37.140;2023-04-15T00:49:33;2.05;;;1.23;;
40609;SDS011;26316;55.976;37.140;2023-04-15T00:52:00;1.42;;;0.75;;
40609;SDS011;26316;55.976;37.140;2023-04-15T00:54:26;2.35;;;0.90;;
40609;SDS011;26316;55.976;37.140;2023-04-15T00:56:51;1.33;;;1.00;;
40609;SDS011;26316;55.976;37.140;2023-04-15T00:59:17;1.75;;;1.00;;
40609;SDS011;26316;55.976;37.140;2023-04-15T01:01:43;2.17;;;0.85;;
40609;SDS011;26316;55.976;37.140;2023-04-15T01:04:09;1.83;;;0.80;;
40609;SDS011;26316;55.976;37.140;2023-04-15T01:06:35;1.70;;;1.10;;
40609;SDS011;26316;55.976;37.140;2023-04-15T01:09:02;1.23;;;0.85;;
40609;SDS011;26316;55.976;37.140;2023-04-15T01:11:27;0.88;;;0.80;;
40609;SDS011;26316;55.976;37.140;2023-04-15T01:13:54;1.73;;;1.08;;
40609;SDS011;26316;55.976;37.140;2023-04-15T01:16:21;1.10;;;1.00;;
40609;SDS011;26316;55.976;37.140;2023-04-15T01:18:47;0.82;;;0.82;;
40609;SDS011;26316;55.976;37.140;2023-04-15T01:21:13;1.17;;;0.98;;
40609;SDS011;26316;55.976;37.140;2023-04-15T01:23:39;1.13;;;1.00;;
40609;SDS011;26316;55.976;37.140;2023-04-15T01:26:06;7.57;;;1.20;;
40609;SDS011;26316;55.976;37.140;2023-04-15T01:28:33;1.10;;;1.00;;
40609;SDS011;26316;55.976;37.140;2023-04-15T01:31:09;1.13;;;0.95;;
40609;SDS011;26316;55.976;37.140;2023-04-15T01:33:37;1.00;;;0.90;;
40609;SDS011;26316;55.976;37.140;2023-04-15T01:36:21;2.75;;;1.08;;
40609;SDS011;26316;55.976;37.140;2023-04-15T01:38:46;2.28;;;1.33;;
40609;SDS011;26316;55.976;37.140;2023-04-15T01:41:13;1.65;;;1.10;;
40609;SDS011;26316;55.976;37.140;2023-04-15T01:43:40;1.05;;;0.95;;
40609;SDS011;26316;55.976;37.140;2023-04-15T01:46:09;1.40;;;1.10;;
40609;SDS011;26316;55.976;37.140;2023-04-15T01:48:35;1.33;;;1.00;;
40609;SDS011;26316;55.976;37.140;2023-04-15T01:51:03;2.45;;;1.15;;
40609;SDS011;26316;55.976;37.140;2023-04-15T01:53:30;1.67;;;0.90;;
40609;SDS011;26316;55.976;37.140;2023-04-15T01:55:57;1.45;;;0.75;;
40609;SDS011;26316;55.976;37.140;2023-04-15T01:58:24;2.38;;;1.25;;
40609;SDS011;26316;55.976;37.140;2023-04-15T02:00:51;1.45;;;1.00;;
40609;SDS011;26316;55.976;37.140;2023-04-15T02:03:18;2.95;;;1.40;;
40609;SDS011;26316;55.976;37.140;2023-04-15T02:05:44;1.52;;;1.13;;
40609;SDS011;26316;55.976;37.140;2023-04-15T02:08:11;3.33;;;0.85;;
40609;SDS011;26316;55.976;37.140;2023-04-15T02:10:38;1.77;;;1.25;;
40609;SDS011;26316;55.976;37.140;2023-04-15T02:13:05;1.80;;;1.05;;
40609;SDS011;26316;55.976;37.140;2023-04-15T02:15:32;1.10;;;1.00;;
40609;SDS011;26316;55.976;37.140;2023-04-15T02:17:59;1.33;;;1.20;;
40609;SDS011;26316;55.976;37.140;2023-04-15T02:20:27;1.63;;;1.17;;
40609;SDS011;26316;55.976;37.140;2023-04-15T02:22:57;1.10;;;0.98;;
40609;SDS011;26316;55.976;37.140;2023-04-15T02:25:24;1.27;;;1.10;;
40609;SDS011;26316;55.976;37.140;2023-04-15T02:27:51;3.35;;;1.30;;
40609;SDS011;26316;55.976;37.140;2023-04-15T02:30:19;1.45;;;1.30;;
40609;SDS011;26316;55.976;37.140;2023-04-15T02:32:46;3.05;;;1.15;;
40609;SDS011;26316;55.976;37.140;2023-04-15T02:35:13;3.95;;;1.67;;
40609;SDS011;26316;55.976;37.140;2023-04-15T02:37:40;2.28;;;1.05;;
40609;SDS011;26316;55.976;37.140;2023-04-15T02:40:10;3.15;;;1.20;;
40609;SDS011;26316;55.976;37.140;2023-04-15T02:42:38;4.20;;;1.02;;
40609;SDS011;26316;55.976;37.140;2023-04-15T02:45:06;6.15;;;1.30;;
40609;SDS011;26316;55.976;37.140;2023-04-15T02:47:34;4.75;;;1.27;;
40609;SDS011;26316;55.976;37.140;2023-04-15T02:50:06;1.80;;;1.40;;
40609;SDS011;26316;55.976;37.140;2023-04-15T02:52:34;2.58;;;1.60;;
40609;SDS011;26316;55.976;37.140;2023-04-15T02:55:01;3.20;;;1.08;;
40609;SDS011;26316;55.976;37.140;2023-04-15T02:57:29;7.60;;;1.40;;
40609;SDS011;26316;55.976;37.140;2023-04-15T02:59:59;2.15;;;1.20;;
40609;SDS011;26316;55.976;37.140;2023-04-15T03:02:27;2.75;;;1.35;;
40609;SDS011;26316;55.976;37.140;2023-04-15T03:04:59;2.38;;;1.10;;
40609;SDS011;26316;55.976;37.140;2023-04-15T03:07:27;3.10;;;1.38;;
40609;SDS011;26316;55.976;37.140;2023-04-15T03:09:54;3.92;;;1.50;;
40609;SDS011;26316;55.976;37.140;2023-04-15T03:12:20;2.15;;;1.08;;
40609;SDS011;26316;55.976;37.140;2023-04-15T03:14:48;1.45;;;1.30;;
40609;SDS011;26316;55.976;37.140;2023-04-15T03:17:15;1.63;;;1.15;;
40609;SDS011;26316;55.976;37.140;2023-04-15T03:19:44;1.55;;;1.40;;
40609;SDS011;26316;55.976;37.140;2023-04-15T03:22:11;3.65;;;1.33;;
40609;SDS011;26316;55.976;37.140;2023-04-15T03:24:38;1.55;;;1.30;;
40609;SDS011;26316;55.976;37.140;2023-04-15T03:27:05;3.97;;;1.17;;
40609;SDS011;26316;55.976;37.140;2023-04-15T03:29:34;2.42;;;1.60;;
40609;SDS011;26316;55.976;37.140;2023-04-15T03:32:01;3.13;;;1.20;;
40609;SDS011;26316;55.976;37.140;2023-04-15T03:34:32;3.22;;;1.90;;
40609;SDS011;26316;55.976;37.140;2023-04-15T03:36:59;2.60;;;1.45;;
40609;SDS011;26316;55.976;37.140;2023-04-15T03:39:26;3.22;;;1.70;;
40609;SDS011;26316;55.976;37.140;2023-04-15T03:41:52;5.22;;;1.42;;
40609;SDS011;26316;55.976;37.140;2023-04-15T03:44:19;1.88;;;1.33;;
40609;SDS011;26316;55.976;37.140;2023-04-15T03:46:46;2.17;;;1.73;;
40609;SDS011;26316;55.976;37.140;2023-04-15T03:49:13;3.42;;;1.50;;
40609;SDS011;26316;55.976;37.140;2023-04-15T03:51:40;5.97;;;1.50;;
40609;SDS011;26316;55.976;37.140;2023-04-15T03:54:07;7.72;;;1.48;;
40609;SDS011;26316;55.976;37.140;2023-04-15T03:56:33;3.58;;;1.65;;
40609;SDS011;26316;55.976;37.140;2023-04-15T03:59:00;8.98;;;1.60;;
40609;SDS011;26316;55.976;37.140;2023-04-15T04:01:27;7.43;;;1.52;;
40609;SDS011;26316;55.976;37.140;2023-04-15T04:03:54;4.70;;;1.70;;
40609;SDS011;26316;55.976;37.140;2023-04-15T04:06:21;3.45;;;1.75;;
40609;SDS011;26316;55.976;37.140;2023-04-15T04:08:48;4.65;;;1.65;;
40609;SDS011;26316;55.976;37.140;2023-04-15T04:11:15;2.45;;;1.73;;
40609;SDS011;26316;55.976;37.140;2023-04-15T04:13:42;1.58;;;1.48;;
40609;SDS011;26316;55.976;37.140;2023-04-15T04:16:09;3.58;;;1.55;;
40609;SDS011;26316;55.976;37.140;2023-04-15T04:18:36;2.22;;;1.58;;
40609;SDS011;26316;55.976;37.140;2023-04-15T04:21:03;3.88;;;1.65;;
40609;SDS011;26316;55.976;37.140;2023-04-15T04:23:30;1.67;;;1.50;;
40609;SDS011;26316;55.976;37.140;2023-04-15T04:25:56;1.65;;;1.50;;
40609;SDS011;26316;55.976;37.140;2023-04-15T04:28:23;2.67;;;1.65;;
40609;SDS011;26316;55.976;37.140;2023-04-15T04:30:50;4.15;;;1.65;;
40609;SDS011;26316;55.976;37.140;2023-04-15T04:33:22;4.25;;;1.55;;
40609;SDS011;26316;55.976;37.140;2023-04-15T04:35:56;1.95;;;1.75;;
40609;SDS011;26316;55.976;37.140;2023-04-15T04:38:34;6.20;;;1.70;;
40609;SDS011;26316;55.976;37.140;2023-04-15T04:41:01;3.58;;;1.70;;
40609;SDS011;26316;55.976;37.140;2023-04-15T04:43:28;7.05;;;1.70;;
40609;SDS011;26316;55.976;37.140;2023-04-15T04:45:55;2.67;;;1.88;;
40609;SDS011;26316;55.976;37.140;2023-04-15T04:48:22;4.75;;;1.80;;
40609;SDS011;26316;55.976;37.140;2023-04-15T04:50:49;3.95;;;1.80;;
40609;SDS011;26316;55.976;37.140;2023-04-15T04:53:16;1.75;;;1.40;;
40609;SDS011;26316;55.976;37.140;2023-04-15T04:55:43;1.60;;;1.42;;
40609;SDS011;26316;55.976;37.140;2023-04-15T04:58:17;5.43;;;1.92;;
40609;SDS011;26316;55.976;37.140;2023-04-15T05:00:58;4.38;;;1.92;;
40609;SDS011;26316;55.976;37.140;2023-04-15T05:03:25;2.30;;;1.50;;
40609;SDS011;26316;55.976;37.140;2023-04-15T05:05:52;3.08;;;1.65;;
40609;SDS011;26316;55.976;37.140;2023-04-15T05:08:20;4.07;;;1.80;;
40609;SDS011;26316;55.976;37.140;2023-04-15T05:10:47;5.03;;;1.40;;
40609;SDS011;26316;55.976;37.140;2023-04-15T05:13:13;1.70;;;1.13;;
40609;SDS011;26316;55.976;37.140;2023-04-15T05:15:40;3.40;;;1.45;;
40609;SDS011;26316;55.976;37.140;2023-04-15T05:18:08;3.03;;;1.80;;
40609;SDS011;26316;55.976;37.140;2023-04-15T05:20:35;3.67;;;1.30;;
40609;SDS011;26316;55.976;37.140;2023-04-15T05:23:02;3.75;;;1.60;;
40609;SDS011;26316;55.976;37.140;2023-04-15T05:25:29;1.75;;;1.45;;
40609;SDS011;26316;55.976;37.140;2023-04-15T05:27:56;4.82;;;1.88;;
40609;SDS011;26316;55.976;37.140;2023-04-15T05:30:23;9.82;;;1.73;;
40609;SDS011;26316;55.976;37.140;2023-04-15T05:32:49;4.68;;;2.15;;
40609;SDS011;26316;55.976;37.140;2023-04-15T05:35:16;4.25;;;1.83;;
40609;SDS011;26316;55.976;37.140;2023-04-15T05:37:43;4.00;;;1.50;;
40609;SDS011;26316;55.976;37.140;2023-04-15T05:40:11;3.40;;;1.80;;
40609;SDS011;26316;55.976;37.140;2023-04-15T05:42:38;7.78;;;1.75;;
40609;SDS011;26316;55.976;37.140;2023-04-15T05:45:05;8.57;;;2.08;;
40609;SDS011;26316;55.976;37.140;2023-04-15T05:47:34;4.30;;;1.92;;
40609;SDS011;26316;55.976;37.140;2023-04-15T05:50:02;3.25;;;1.58;;
40609;SDS011;26316;55.976;37.140;2023-04-15T05:52:30;4.35;;;1.70;;
40609;SDS011;26316;55.976;37.140;2023-04-15T05:54:57;7.65;;;1.88;;
40609;SDS011;26316;55.976;37.140;2023-04-15T05:57:24;4.22;;;1.60;;
40609;SDS011;26316;55.976;37.140;2023-04-15T05:59:51;7.97;;;1.65;;
40609;SDS011;26316;55.976;37.140;2023-04-15T06:02:18;5.22;;;2.05;;
40609;SDS011;26316;55.976;37.140;2023-04-15T06:04:45;2.78;;;1.42;;
40609;SDS011;26316;55.976;37.140;2023-04-15T06:07:11;2.40;;;1.48;;
40609;SDS011;26316;55.976;37.140;2023-04-15T06:09:38;7.25;;;1.55;;
40609;SDS011;26316;55.976;37.140;2023-04-15T06:12:05;6.05;;;1.60;;
40609;SDS011;26316;55.976;37.140;2023-04-15T06:14:37;6.28;;;1.70;;
40609;SDS011;26316;55.976;37.140;2023-04-15T06:17:04;4.93;;;2.17;;
40609;SDS011;26316;55.976;37.140;2023-04-15T06:19:32;7.53;;;1.65;;
40609;SDS011;26316;55.976;37.140;2023-04-15T06:22:00;5.43;;;1.40;;
40609;SDS011;26316;55.976;37.140;2023-04-15T06:24:27;3.70;;;1.60;;
40609;SDS011;26316;55.976;37.140;2023-04-15T06:26:54;4.20;;;1.70;;
40609;SDS011;26316;55.976;37.140;2023-04-15T06:29:21;8.90;;;1.80;;
40609;SDS011;26316;55.976;37.140;2023-04-15T06:31:48;7.07;;;1.75;;
40609;SDS011;26316;55.976;37.140;2023-04-15T06:34:15;2.85;;;1.80;;
40609;SDS011;26316;55.976;37.140;2023-04-15T06:36:41;2.15;;;1.50;;
40609;SDS011;26316;55.976;37.140;2023-04-15T06:39:08;8.18;;;1.55;;
40609;SDS011;26316;55.976;37.140;2023-04-15T06:41:35;4.70;;;2.00;;
40609;SDS011;26316;55.976;37.140;2023-04-15T06:44:02;4.20;;;1.90;;
40609;SDS011;26316;55.976;37.140;2023-04-15T06:46:29;6.50;;;1.85;;
40609;SDS011;26316;55.976;37.140;2023-04-15T06:48:56;4.18;;;1.90;;
40609;SDS011;26316;55.976;37.140;2023-04-15T06:51:23;3.63;;;1.63;;
40609;SDS011;26316;55.976;37.140;2023-04-15T06:53:50;3.55;;;2.00;;
40609;SDS011;26316;55.976;37.140;2023-04-15T06:56:17;4.63;;;1.83;;
40609;SDS011;26316;55.976;37.140;2023-04-15T06:58:43;6.95;;;1.80;;
40609;SDS011;26316;55.976;37.140;2023-04-15T07:01:12;6.38;;;1.88;;
40609;SDS011;26316;55.976;37.140;2023-04-15T07:03:39;5.28;;;2.20;;
40609;SDS011;26316;55.976;37.140;2023-04-15T07:06:07;7.72;;;2.33;;
40609;SDS011;26316;55.976;37.140;2023-04-15T07:08:35;3.92;;;1.85;;
40609;SDS011;26316;55.976;37.140;2023-04-15T07:11:02;8.40;;;2.03;;
40609;SDS011;26316;55.976;37.140;2023-04-15T07:13:29;6.30;;;2.08;;
40609;SDS011;26316;55.976;37.140;2023-04-15T07:15:57;6.55;;;1.75;;
40609;SDS011;26316;55.976;37.140;2023-04-15T07:18:24;8.73;;;2.35;;
40609;SDS011;26316;55.976;37.140;2023-04-15T07:20:51;6.28;;;1.80;;
40609;SDS011;26316;55.976;37.140;2023-04-15T07:23:18;5.22;;;1.77;;
40609;SDS011;26316;55.976;37.140;2023-04-15T07:25:44;6.32;;;2.22;;
40609;SDS011;26316;55.976;37.140;2023-04-15T07:28:11;6.25;;;2.03;;
40609;SDS011;26316;55.976;37.140;2023-04-15T07:30:38;8.23;;;2.20;;
40609;SDS011;26316;55.976;37.140;2023-04-15T07:33:05;4.75;;;1.83;;
40609;SDS011;26316;55.976;37.140;2023-04-15T07:35:32;3.95;;;2.00;;
40609;SDS011;26316;55.976;37.140;2023-04-15T07:37:59;6.18;;;2.10;;
40609;SDS011;26316;55.976;37.140;2023-04-15T07:40:26;4.90;;;1.90;;
40609;SDS011;26316;55.976;37.140;2023-04-15T07:42:54;3.08;;;1.77;;
40609;SDS011;26316;55.976;37.140;2023-04-15T07:45:22;5.63;;;1.83;;
40609;SDS011;26316;55.976;37.140;2023-04-15T07:47:49;8.50;;;2.13;;
40609;SDS011;26316;55.976;37.140;2023-04-15T07:50:16;7.55;;;2.00;;
40609;SDS011;26316;55.976;37.140;2023-04-15T07:52:45;4.45;;;1.73;;
40609;SDS011;26316;55.976;37.140;2023-04-15T07:55:12;12.57;;;1.83;;
40609;SDS011;26316;55.976;37.140;2023-04-15T07:57:39;5.93;;;1.90;;
40609;SDS011;26316;55.976;37.140;2023-04-15T08:00:06;10.77;;;2.08;;
40609;SDS011;26316;55.976;37.140;2023-04-15T08:02:39;5.93;;;1.83;;
40609;SDS011;26316;55.976;37.140;2023-04-15T08:05:07;7.00;;;2.15;;
40609;SDS011;26316;55.976;37.140;2023-04-15T08:07:35;6.15;;;1.98;;
40609;SDS011;26316;55.976;37.140;2023-04-15T08:10:03;2.80;;;1.60;;
40609;SDS011;26316;55.976;37.140;2023-04-15T08:12:30;8.68;;;1.98;;
40609;SDS011;26316;55.976;37.140;2023-04-15T08:14:57;9.15;;;1.50;;
40609;SDS011;26316;55.976;37.140;2023-04-15T08:17:24;7.38;;;2.05;;
40609;SDS011;26316;55.976;37.140;2023-04-15T08:19:51;2.97;;;1.90;;
40609;SDS011;26316;55.976;37.140;2023-04-15T08:22:19;7.68;;;2.10;;
40609;SDS011;26316;55.976;37.140;2023-04-15T08:24:46;6.30;;;1.70;;
40609;SDS011;26316;55.976;37.140;2023-04-15T08:27:12;6.50;;;1.70;;
40609;SDS011;26316;55.976;37.140;2023-04-15T08:29:39;4.10;;;1.60;;
40609;SDS011;26316;55.976;37.140;2023-04-15T08:32:06;8.02;;;1.90;;
40609;SDS011;26316;55.976;37.140;2023-04-15T08:34:33;8.02;;;1.80;;
40609;SDS011;26316;55.976;37.140;2023-04-15T08:37:00;5.20;;;1.75;;
40609;SDS011;26316;55.976;37.140;2023-04-15T08:39:27;5.82;;;2.22;;
40609;SDS011;26316;55.976;37.140;2023-04-15T08:42:00;5.82;;;1.70;;
40609;SDS011;26316;55.976;37.140;2023-04-15T08:44:29;4.28;;;1.80;;
40609;SDS011;26316;55.976;37.140;2023-04-15T08:47:02;6.50;;;1.70;;
40609;SDS011;26316;55.976;37.140;2023-04-15T08:49:29;5.85;;;1.92;;
40609;SDS011;26316;55.976;37.140;2023-04-15T08:51:58;2.63;;;1.80;;
40609;SDS011;26316;55.976;37.140;2023-04-15T08:54:26;9.63;;;2.05;;
40609;SDS011;26316;55.976;37.140;2023-04-15T08:56:53;4.35;;;1.90;;
40609;SDS011;26316;55.976;37.140;2023-04-15T08:59:21;2.63;;;1.85;;
40609;SDS011;26316;55.976;37.140;2023-04-15T09:01:50;8.05;;;2.42;;
40609;SDS011;26316;55.976;37.140;2023-04-15T09:04:17;6.35;;;2.28;;
40609;SDS011;26316;55.976;37.140;2023-04-15T09:06:44;6.47;;;2.00;;
40609;SDS011;26316;55.976;37.140;2023-04-15T09:09:11;4.07;;;2.05;;
40609;SDS011;26316;55.976;37.140;2023-04-15T09:11:39;4.78;;;2.00;;
40609;SDS011;26316;55.976;37.140;2023-04-15T09:14:07;6.45;;;1.95;;
40609;SDS011;26316;55.976;37.140;2023-04-15T09:19:30;6.68;;;1.80;;
40609;SDS011;26316;55.976;37.140;2023-04-15T09:21:58;6.77;;;2.10;;
40609;SDS011;26316;55.976;37.140;2023-04-15T09:24:32;3.03;;;1.42;;
40609;SDS011;26316;55.976;37.140;2023-04-15T09:27:02;2.35;;;1.50;;
40609;SDS011;26316;55.976;37.140;2023-04-15T09:29:29;6.47;;;1.95;;
40609;SDS011;26316;55.976;37.140;2023-04-15T09:32:07;3.85;;;1.85;;
40609;SDS011;26316;55.976;37.140;2023-04-15T09:34:35;7.07;;;2.10;;
40609;SDS011;26316;55.976;37.140;2023-04-15T09:37:03;5.10;;;2.00;;
40609;SDS011;26316;55.976;37.140;2023-04-15T09:39:49;8.18;;;2.22;;
40609;SDS011;26316;55.976;37.140;2023-04-15T09:42:17;10.18;;;2.28;;
40609;SDS011;26316;55.976;37.140;2023-04-15T09:44:50;2.90;;;1.80;;
40609;SDS011;26316;55.976;37.140;2023-04-15T09:49:57;6.90;;;2.05;;
40609;SDS011;26316;55.976;37.140;2023-04-15T09:52:25;2.55;;;1.85;;
40609;SDS011;26316;55.976;37.140;2023-04-15T09:54:53;4.88;;;1.98;;
40609;SDS011;26316;55.976;37.140;2023-04-15T09:57:21;3.28;;;1.70;;
40609;SDS011;26316;55.976;37.140;2023-04-15T09:59:49;17.55;;;2.05;;
40609;SDS011;26316;55.976;37.140;2023-04-15T10:02:17;5.22;;;1.80;;
40609;SDS011;26316;55.976;37.140;2023-04-15T10:04:46;6.63;;;1.80;;
40609;SDS011;26316;55.976;37.140;2023-04-15T10:07:14;6.75;;;1.75;;
40609;SDS011;26316;55.976;37.140;2023-04-15T10:09:41;4.20;;;2.03;;
40609;SDS011;26316;55.976;37.140;2023-04-15T10:12:08;4.70;;;2.30;;
40609;SDS011;26316;55.976;37.140;2023-04-15T10:14:36;2.05;;;1.60;;
40609;SDS011;26316;55.976;37.140;2023-04-15T10:17:04;6.70;;;1.60;;
40609;SDS011;26316;55.976;37.140;2023-04-15T10:19:32;4.35;;;1.55;;
40609;SDS011;26316;55.976;37.140;2023-04-15T10:21:59;5.95;;;1.98;;
40609;SDS011;26316;55.976;37.140;2023-04-15T10:24:27;3.88;;;1.50;;
40609;SDS011;26316;55.976;37.140;2023-04-15T10:26:58;3.65;;;1.30;;
40609;SDS011;26316;55.976;37.140;2023-04-15T10:29:26;9.27;;;1.55;;
40609;SDS011;26316;55.976;37.140;2023-04-15T10:31:53;11.73;;;1.67;;
40609;SDS011;26316;55.976;37.140;2023-04-15T10:34:24;4.22;;;2.08;;
40609;SDS011;26316;55.976;37.140;2023-04-15T10:36:54;7.53;;;1.90;;
40609;SDS011;26316;55.976;37.140;2023-04-15T10:42:05;8.50;;;1.95;;
40609;SDS011;26316;55.976;37.140;2023-04-15T10:44:32;3.92;;;2.00;;
40609;SDS011;26316;55.976;37.140;2023-04-15T10:46:59;8.85;;;2.40;;
40609;SDS011;26316;55.976;37.140;2023-04-15T10:49:26;5.50;;;2.13;;
40609;SDS011;26316;55.976;37.140;2023-04-15T10:51:57;4.22;;;2.17;;
40609;SDS011;26316;55.976;37.140;2023-04-15T11:00:29;3.70;;;2.08;;
40609;SDS011;26316;55.976;37.140;2023-04-15T11:05:19;11.60;;;2.50;;
40609;SDS011;26316;55.976;37.140;2023-04-15T11:07:48;9.55;;;2.30;;
40609;SDS011;26316;55.976;37.140;2023-04-15T11:12:44;7.20;;;2.30;;
40609;SDS011;26316;55.976;37.140;2023-04-15T11:15:24;5.00;;;2.15;;
40609;SDS011;26316;55.976;37.140;2023-04-15T11:17:56;6.65;;;2.33;;
40609;SDS011;26316;55.976;37.140;2023-04-15T11:20:24;9.70;;;2.17;;
40609;SDS011;26316;55.976;37.140;2023-04-15T11:22:51;3.80;;;2.15;;
40609;SDS011;26316;55.976;37.140;2023-04-15T11:25:25;6.60;;;2.08;;
40609;SDS011;26316;55.976;37.140;2023-04-15T11:27:54;2.90;;;2.25;;
40609;SDS011;26316;55.976;37.140;2023-04-15T11:30:28;5.90;;;2.17;;
40609;SDS011;26316;55.976;37.140;2023-04-15T11:33:06;5.13;;;2.17;;
40609;SDS011;26316;55.976;37.140;2023-04-15T11:35:34;6.22;;;2.10;;
40609;SDS011;26316;55.976;37.140;2023-04-15T11:38:07;4.10;;;2.00;;
40609;SDS011;26316;55.976;37.140;2023-04-15T11:40:35;4.07;;;2.22;;
40609;SDS011;26316;55.976;37.140;2023-04-15T11:43:21;5.03;;;2.25;;
40609;SDS011;26316;55.976;37.140;2023-04-15T11:45:50;2.25;;;1.92;;
40609;SDS011;26316;55.976;37.140;2023-04-15T11:48:30;2.67;;;2.33;;
40609;SDS011;26316;55.976;37.140;2023-04-15T11:51:02;2.15;;;1.92;;
40609;SDS011;26316;55.976;37.140;2023-04-15T11:56:08;5.63;;;2.38;;
40609;SDS011;26316;55.976;37.140;2023-04-15T11:58:35;6.07;;;2.35;;
40609;SDS011;26316;55.976;37.140;2023-04-15T12:01:03;4.93;;;2.10;;
40609;SDS011;26316;55.976;37.140;2023-04-15T12:03:32;5.05;;;2.10;;
40609;SDS011;26316;55.976;37.140;2023-04-15T12:06:18;5.43;;;1.92;;
40609;SDS011;26316;55.976;37.140;2023-04-15T12:08:51;3.08;;;1.98;;
40609;SDS011;26316;55.976;37.140;2023-04-15T12:16:51;10.02;;;2.80;;
40609;SDS011;26316;55.976;37.140;2023-04-15T12:19:39;6.18;;;2.60;;
40609;SDS011;26316;55.976;37.140;2023-04-15T12:22:10;3.90;;;2.10;;
40609;SDS011;26316;55.976;37.140;2023-04-15T12:24:37;8.90;;;2.40;;
40609;SDS011;26316;55.976;37.140;2023-04-15T12:27:04;7.60;;;2.63;;
40609;SDS011;26316;55.976;37.140;2023-04-15T12:29:31;7.05;;;2.42;;
40609;SDS011;26316;55.976;37.140;2023-04-15T12:32:03;8.30;;;2.30;;
40609;SDS011;26316;55.976;37.140;2023-04-15T12:34:34;4.65;;;2.63;;
40609;SDS011;26316;55.976;37.140;2023-04-15T12:37:02;6.30;;;2.10;;
40609;SDS011;26316;55.976;37.140;2023-04-15T12:39:30;8.20;;;2.95;;
40609;SDS011;26316;55.976;37.140;2023-04-15T12:41:57;6.95;;;2.60;;
40609;SDS011;26316;55.976;37.140;2023-04-15T12:44:25;5.38;;;2.00;;
40609;SDS011;26316;55.976;37.140;2023-04-15T12:46:53;8.27;;;2.35;;
40609;SDS011;26316;55.976;37.140;2023-04-15T12:49:22;5.65;;;2.47;;
40609;SDS011;26316;55.976;37.140;2023-04-15T12:51:49;3.10;;;2.58;;
40609;SDS011;26316;55.976;37.140;2023-04-15T12:54:15;5.22;;;2.50;;
40609;SDS011;26316;55.976;37.140;2023-04-15T12:56:42;3.63;;;2.05;;
40609;SDS011;26316;55.976;37.140;2023-04-15T12:59:09;6.38;;;2.30;;
40609;SDS011;26316;55.976;37.140;2023-04-15T13:01:34;3.30;;;2.63;;
40609;SDS011;26316;55.976;37.140;2023-04-15T13:04:00;5.15;;;2.72;;
40609;SDS011;26316;55.976;37.140;2023-04-15T13:06:26;4.53;;;2.60;;
40609;SDS011;26316;55.976;37.140;2023-04-15T13:08:53;5.68;;;2.30;;
40609;SDS011;26316;55.976;37.140;2023-04-15T13:11:22;2.97;;;1.88;;
40609;SDS011;26316;55.976;37.140;2023-04-15T13:13:48;4.40;;;1.88;;
40609;SDS011;26316;55.976;37.140;2023-04-15T13:16:14;3.17;;;2.13;;
40609;SDS011;26316;55.976;37.140;2023-04-15T13:18:39;5.90;;;1.95;;
40609;SDS011;26316;55.976;37.140;2023-04-15T13:21:05;4.82;;;2.30;;
40609;SDS011;26316;55.976;37.140;2023-04-15T13:23:32;2.30;;;2.00;;
40609;SDS011;26316;55.976;37.140;2023-04-15T13:25:58;7.80;;;2.00;;
40609;SDS011;26316;55.976;37.140;2023-04-15T13:28:24;4.63;;;2.00;;
40609;SDS011;26316;55.976;37.140;2023-04-15T13:30:49;6.35;;;1.85;;
40609;SDS011;26316;55.976;37.140;2023-04-15T13:33:15;4.00;;;2.10;;
40609;SDS011;26316;55.976;37.140;2023-04-15T13:35:42;5.55;;;2.05;;
40609;SDS011;26316;55.976;37.140;2023-04-15T13:38:07;11.50;;;2.55;;
40609;SDS011;26316;55.976;37.140;2023-04-15T13:40:33;3.40;;;2.00;;
40609;SDS011;26316;55.976;37.140;2023-04-15T13:42:59;6.47;;;1.98;;
40609;SDS011;26316;55.976;37.140;2023-04-15T13:45:25;2.72;;;2.28;;
40609;SDS011;26316;55.976;37.140;2023-04-15T13:47:51;4.10;;;2.15;;
40609;SDS011;26316;55.976;37.140;2023-04-15T13:50:17;1.73;;;1.60;;
40609;SDS011;26316;55.976;37.140;2023-04-15T13:52:43;9.15;;;2.35;;
40609;SDS011;26316;55.976;37.140;2023-04-15T13:55:09;6.63;;;2.28;;
40609;SDS011;26316;55.976;37.140;2023-04-15T13:57:37;5.30;;;2.20;;
40609;SDS011;26316;55.976;37.140;2023-04-15T14:00:09;3.22;;;2.20;;
40609;SDS011;26316;55.976;37.140;2023-04-15T14:02:35;4.72;;;2.13;;
40609;SDS011;26316;55.976;37.140;2023-04-15T14:05:01;2.75;;;2.28;;
40609;SDS011;26316;55.976;37.140;2023-04-15T14:07:29;2.95;;;2.17;;
40609;SDS011;26316;55.976;37.140;2023-04-15T14:09:55;5.05;;;2.22;;
40609;SDS011;26316;55.976;37.140;2023-04-15T14:12:21;6.10;;;2.55;;
40609;SDS011;26316;55.976;37.140;2023-04-15T14:14:47;3.58;;;2.20;;
40609;SDS011;26316;55.976;37.140;2023-04-15T14:17:12;5.72;;;2.70;;
40609;SDS011;26316;55.976;37.140;2023-04-15T14:19:38;4.07;;;2.78;;
40609;SDS011;26316;55.976;37.140;2023-04-15T14:22:04;4.78;;;2.38;;
40609;SDS011;26316;55.976;37.140;2023-04-15T14:24:30;3.28;;;2.42;;
40609;SDS011;26316;55.976;37.140;2023-04-15T14:26:55;4.38;;;2.30;;
40609;SDS011;26316;55.976;37.140;2023-04-15T14:29:21;4.35;;;2.33;;
40609;SDS011;26316;55.976;37.140;2023-04-15T14:31:47;3.53;;;2.58;;
40609;SDS011;26316;55.976;37.140;2023-04-15T14:34:14;5.03;;;2.80;;
40609;SDS011;26316;55.976;37.140;2023-04-15T14:36:40;3.85;;;2.80;;
40609;SDS011;26316;55.976;37.140;2023-04-15T14:39:06;3.05;;;2.75;;
40609;SDS011;26316;55.976;37.140;2023-04-15T14:41:33;3.20;;;2.67;;
40609;SDS011;26316;55.976;37.140;2023-04-15T14:43:58;6.15;;;3.05;;
40609;SDS011;26316;55.976;37.140;2023-04-15T14:46:24;4.53;;;2.65;;
40609;SDS011;26316;55.976;37.140;2023-04-15T14:48:50;6.43;;;3.30;;
40609;SDS011;26316;55.976;37.140;2023-04-15T14:51:16;7.47;;;3.30;;
40609;SDS011;26316;55.976;37.140;2023-04-15T14:53:42;5.78;;;3.28;;
40609;SDS011;26316;55.976;37.140;2023-04-15T14:56:08;12.73;;;4.30;;
40609;SDS011;26316;55.976;37.140;2023-04-15T14:58:34;7.40;;;3.70;;
40609;SDS011;26316;55.976;37.140;2023-04-15T15:01:00;5.15;;;2.80;;
40609;SDS011;26316;55.976;37.140;2023-04-15T15:03:27;7.72;;;3.70;;